• Join FlightAware (Why Join?)
  • Login
  • US Flag 
12:10AM EDT


 

Airport Tracker/Info


-or-


 

Live Flight TrackerFlight Track Log ✈ CSN3433 ✈ 09-Jul-2014 ✈ ZGSZ / SZX - ZUUU / CTU

Flight Track Log - Related Links

Times and Time Zones

All times are in EDT time to prevent confusion due to time zone crossing. See the CSN3433 flight status page for this flight to view local times or setup timezone preferences in your user account.

Time Position Orientation Groundspeed Altitude Reporting Facility
EDT Latitude Longitude Course Direction KTS MPH feet Rate Location/Type
07:06AM 22.7145 113.7285 314° West  Level Estimated
07:07AM 22.7894 113.6445 314° West  Level Estimated
07:08AM 22.8643 113.5605 314° West  Level Estimated
07:09AM 22.9379 113.4778 314° West  Level Estimated
07:10AM 23.0114 113.3951 314° West  Level Estimated
07:11AM 23.0842 113.3130 314° West  Level Estimated
07:12AM 23.1569 113.2308 314° West  Level Estimated
07:13AM 23.2296 113.1485 314° West  Level Estimated
07:14AM 23.3023 113.0661 314° West  Level Estimated
07:15AM 23.3749 112.9837 314° West  Level Estimated
07:16AM 23.4475 112.9011 314° West  Level Estimated
07:17AM 23.5201 112.8185 314° West  Level Estimated
07:18AM 23.5925 112.7358 314° West  Level Estimated
07:19AM 23.6650 112.6529 314° West  Level Estimated
07:20AM 23.7374 112.5700 314° West  Level Estimated
07:21AM 23.8098 112.4870 314° West  Level Estimated
07:22AM 23.8821 112.4039 314° West  Level Estimated
07:23AM 23.9544 112.3207 314° West  Level Estimated
07:24AM 24.0266 112.2374 314° West  Level Estimated
07:25AM 24.0988 112.1541 313° West  Level Estimated
07:26AM 24.1709 112.0706 313° West  Level Estimated
07:27AM 24.2430 111.9870 313° West  Level Estimated
07:28AM 24.3151 111.9034 313° West  Level Estimated
07:29AM 24.3871 111.8196 313° West  Level Estimated
07:30AM 24.4590 111.7357 313° West  Level Estimated
07:31AM 24.5309 111.6518 313° West  Level Estimated
07:32AM 24.6028 111.5677 313° West  Level Estimated
07:33AM 24.6746 111.4836 313° West  Level Estimated
07:34AM 24.7464 111.3994 313° West  Level Estimated
07:35AM 24.8181 111.3150 313° West  Level Estimated
07:36AM 24.8898 111.2306 313° West  Level Estimated
07:37AM 24.9614 111.1461 313° West  Level Estimated
07:38AM 25.0330 111.0614 313° West  Level Estimated
07:39AM 25.1045 110.9767 313° West  Level Estimated
07:40AM 25.1760 110.8919 313° West  Level Estimated
07:41AM 25.2474 110.8069 313° West  Level Estimated
07:42AM 25.3188 110.7219 313° West  Level Estimated
07:43AM 25.3901 110.6368 313° West  Level Estimated
07:44AM 25.4614 110.5516 313° West  Level Estimated
07:45AM 25.5327 110.4662 313° West  Level Estimated
07:46AM 25.6039 110.3808 313° West  Level Estimated
07:47AM 25.6750 110.2953 313° West  Level Estimated
07:48AM 25.7461 110.2096 313° West  Level Estimated
07:49AM 25.8171 110.1239 313° West  Level Estimated
07:50AM 25.8881 110.0380 313° West  Level Estimated
07:51AM 25.9591 109.9521 313° West  Level Estimated
07:52AM 26.0299 109.8661 313° West  Level Estimated
07:53AM 26.1008 109.7799 312° West  Level Estimated
07:54AM 26.1716 109.6937 312° West  Level Estimated
07:55AM 26.2423 109.6073 312° West  Level Estimated
07:56AM 26.3130 109.5208 312° West  Level Estimated
07:57AM 26.3836 109.4343 312° West  Level Estimated
07:58AM 26.4542 109.3476 312° West  Level Estimated
07:59AM 26.5247 109.2608 312° West  Level Estimated
08:00AM 26.5952 109.1739 312° West  Level Estimated
08:01AM 26.6656 109.0869 312° West  Level Estimated
08:02AM 26.7360 108.9998 312° West  Level Estimated
08:03AM 26.8063 108.9126 312° West  Level Estimated
08:04AM 26.8766 108.8253 312° West  Level Estimated
08:05AM 26.9468 108.7378 312° West  Level Estimated
08:06AM 27.0169 108.6503 312° West  Level Estimated
08:07AM 27.0870 108.5627 312° West  Level Estimated
08:08AM 27.1571 108.4749 312° West  Level Estimated
08:09AM 27.2271 108.3870 312° West  Level Estimated
08:10AM 27.2970 108.2991 312° West  Level Estimated
08:11AM 27.3669 108.2110 312° West  Level Estimated
08:12AM 27.4367 108.1228 312° West  Level Estimated
08:13AM 27.5065 108.0345 312° West  Level Estimated
08:14AM 27.5762 107.9460 312° West  Level Estimated
08:15AM 27.6458 107.8575 312° West  Level Estimated
08:16AM 27.7154 107.7689 312° West  Level Estimated
08:17AM 27.7850 107.6801 312° West  Level Estimated
08:18AM 27.8545 107.5912 311° West  Level Estimated
08:19AM 27.9239 107.5022 311° West  Level Estimated
08:20AM 27.9933 107.4131 311° West  Level Estimated
08:21AM 28.0626 107.3239 311° West  Level Estimated
08:22AM 28.1318 107.2346 311° West  Level Estimated
08:23AM 28.2010 107.1451 311° West  Level Estimated
08:24AM 28.2702 107.0556 311° West  Level Estimated
08:25AM 28.3393 106.9659 311° West  Level Estimated
08:26AM 28.4083 106.8761 311° West  Level Estimated
08:27AM 28.4773 106.7862 311° West  Level Estimated
08:28AM 28.5462 106.6961 311° West  Level Estimated
08:29AM 28.6150 106.6060 311° West  Level Estimated
08:30AM 28.6838 106.5157 311° West  Level Estimated
08:31AM 28.7525 106.4253 311° West  Level Estimated
08:32AM 28.8212 106.3348 311° West  Level Estimated
08:33AM 28.8898 106.2442 311° West  Level Estimated
08:34AM 28.9583 106.1535 311° West  Level Estimated
08:35AM 29.0268 106.0626 311° West  Level Estimated
08:36AM 29.0953 105.9716 311° West  Level Estimated
08:37AM 29.1636 105.8805 311° West  Level Estimated
08:38AM 29.2319 105.7893 311° West  Level Estimated
08:39AM 29.3002 105.6979 311° West  Level Estimated
08:40AM 29.3683 105.6064 311° West  Level Estimated
08:41AM 29.4364 105.5148 311° West  Level Estimated
08:42AM 29.5045 105.4231 310° West  Level Estimated
08:43AM 29.5725 105.3313 310° West  Level Estimated
08:44AM 29.6404 105.2393 310° West  Level Estimated
08:45AM 29.7083 105.1472 310° West  Level Estimated
08:46AM 29.7761 105.0550 310° West  Level Estimated
08:47AM 29.8438 104.9627 310° West  Level Estimated
08:48AM 29.9115 104.8702 310° West  Level Estimated
08:49AM 29.9791 104.7776 310° West  Level Estimated
08:50AM 30.0466 104.6849 310° West  Level Estimated
08:51AM 30.1141 104.5921 310° West  Level Estimated
08:52AM 30.1815 104.4991 310° West  Level Estimated
08:53AM 30.2488 104.4060 310° West  Level Estimated
08:54AM 30.3161 104.3128 310° West  Level Estimated
08:55AM 30.3833 104.2194 310° West  Level Estimated
08:56AM 30.4476 104.1299 310° West  Level Estimated
08:57AM 30.5119 104.0403 310° West  Level Estimated
08:58AM 30.5761 103.9505 310° West  Level Estimated
08:59AM 30.5785 103.9471 310° West  Level Estimated
09:00AM 30.5785 103.9471 North  Level Estimated
09:01AM 30.5785 103.9471 North  Level Estimated
09:02AM 30.5785 103.9471 North  Level Estimated
09:03AM 30.5785 103.9471 North  Level Estimated
09:04AM 30.5785 103.9471 North  Level Estimated
09:05AM 30.5785 103.9471 North  Level Estimated
09:06AM 30.5785 103.9471 North  Level Estimated
09:07AM 30.5785 103.9471 North  Level Estimated
09:08AM 30.5785 103.9471 North  Level Estimated
09:09AM 30.5785 103.9471 North  Level Estimated
09:10AM 30.5785 103.9471 North  Level Estimated
09:11AM 30.5785 103.9471 North  Level Estimated
09:12AM 30.5785 103.9471 North  Level Estimated
09:13AM 30.5785 103.9471 North  Level Estimated
09:14AM 30.5785 103.9471 North  Level Estimated
09:15AM 30.5785 103.9471 North  Level Estimated
09:16AM 30.5785 103.9471 North  Level Estimated
09:17AM 30.5785 103.9471 North  Level Estimated